sensor_id;sensor_type;location;lat;lon;timestamp;temperature;humidity
75380;HTU21D;65641;44.714;37.756;2023-07-20T00:00:34;23.52;60.22
75380;HTU21D;65641;44.714;37.756;2023-07-20T00:01:55;23.50;60.31
75380;HTU21D;65641;44.714;37.756;2023-07-20T00:03:16;23.49;60.15
75380;HTU21D;65641;44.714;37.756;2023-07-20T00:04:26;23.49;60.28
75380;HTU21D;65641;44.714;37.756;2023-07-20T00:05:30;23.47;60.20
75380;HTU21D;65641;44.714;37.756;2023-07-20T00:06:33;23.49;60.17
75380;HTU21D;65641;44.714;37.756;2023-07-20T00:07:37;23.47;60.33
75380;HTU21D;65641;44.714;37.756;2023-07-20T00:08:40;23.47;60.09
75380;HTU21D;65641;44.714;37.756;2023-07-20T00:09:44;23.46;60.28
75380;HTU21D;65641;44.714;37.756;2023-07-20T00:10:48;23.45;60.32
75380;HTU21D;65641;44.714;37.756;2023-07-20T00:11:52;23.43;60.38
75380;HTU21D;65641;44.714;37.756;2023-07-20T00:12:56;23.43;60.44
75380;HTU21D;65641;44.714;37.756;2023-07-20T00:14:00;23.44;60.35
75380;HTU21D;65641;44.714;37.756;2023-07-20T00:15:04;23.45;60.36
75380;HTU21D;65641;44.714;37.756;2023-07-20T00:16:07;23.42;60.18
75380;HTU21D;65641;44.714;37.756;2023-07-20T00:17:11;23.41;60.44
75380;HTU21D;65641;44.714;37.756;2023-07-20T00:18:15;23.43;60.25
75380;HTU21D;65641;44.714;37.756;2023-07-20T00:19:18;23.41;60.31
75380;HTU21D;65641;44.714;37.756;2023-07-20T00:20:24;23.40;60.18
75380;HTU21D;65641;44.714;37.756;2023-07-20T00:21:28;23.41;60.40
75380;HTU21D;65641;44.714;37.756;2023-07-20T00:22:31;23.38;60.46
75380;HTU21D;65641;44.714;37.756;2023-07-20T00:23:35;23.38;60.48
75380;HTU21D;65641;44.714;37.756;2023-07-20T00:24:39;23.37;60.44
75380;HTU21D;65641;44.714;37.756;2023-07-20T00:25:42;23.35;60.51
75380;HTU21D;65641;44.714;37.756;2023-07-20T00:26:46;23.36;60.48
75380;HTU21D;65641;44.714;37.756;2023-07-20T00:27:50;23.34;60.42
75380;HTU21D;65641;44.714;37.756;2023-07-20T00:28:55;23.34;60.41
75380;HTU21D;65641;44.714;37.756;2023-07-20T00:29:59;23.34;60.57
75380;HTU21D;65641;44.714;37.756;2023-07-20T00:31:04;23.31;60.62
75380;HTU21D;65641;44.714;37.756;2023-07-20T00:32:07;23.31;60.41
75380;HTU21D;65641;44.714;37.756;2023-07-20T00:33:12;23.31;60.57
75380;HTU21D;65641;44.714;37.756;2023-07-20T00:34:16;23.31;60.48
75380;HTU21D;65641;44.714;37.756;2023-07-20T00:35:19;23.29;60.47
75380;HTU21D;65641;44.714;37.756;2023-07-20T00:36:23;23.31;60.28
75380;HTU21D;65641;44.714;37.756;2023-07-20T00:37:27;23.29;60.33
75380;HTU21D;65641;44.714;37.756;2023-07-20T00:38:30;23.28;60.60
75380;HTU21D;65641;44.714;37.756;2023-07-20T00:39:34;23.28;60.35
75380;HTU21D;65641;44.714;37.756;2023-07-20T00:40:38;23.27;60.33
75380;HTU21D;65641;44.714;37.756;2023-07-20T00:41:43;23.26;60.42
75380;HTU21D;65641;44.714;37.756;2023-07-20T00:42:46;23.26;60.41
75380;HTU21D;65641;44.714;37.756;2023-07-20T00:43:56;23.25;60.47
75380;HTU21D;65641;44.714;37.756;2023-07-20T00:45:00;23.25;60.56
75380;HTU21D;65641;44.714;37.756;2023-07-20T00:46:04;23.24;60.59
75380;HTU21D;65641;44.714;37.756;2023-07-20T00:47:08;23.23;60.60
75380;HTU21D;65641;44.714;37.756;2023-07-20T00:48:12;23.22;60.37
75380;HTU21D;65641;44.714;37.756;2023-07-20T00:49:19;23.25;60.57
75380;HTU21D;65641;44.714;37.756;2023-07-20T00:50:25;23.24;60.54
75380;HTU21D;65641;44.714;37.756;2023-07-20T00:51:29;23.23;60.44
75380;HTU21D;65641;44.714;37.756;2023-07-20T00:52:33;23.23;60.49
75380;HTU21D;65641;44.714;37.756;2023-07-20T00:53:37;23.24;60.28
75380;HTU21D;65641;44.714;37.756;2023-07-20T00:54:41;23.23;60.55
75380;HTU21D;65641;44.714;37.756;2023-07-20T00:55:45;23.23;60.51
75380;HTU21D;65641;44.714;37.756;2023-07-20T00:56:49;23.21;60.38
75380;HTU21D;65641;44.714;37.756;2023-07-20T00:57:54;23.22;60.52
75380;HTU21D;65641;44.714;37.756;2023-07-20T00:58:57;23.22;60.51
75380;HTU21D;65641;44.714;37.756;2023-07-20T01:00:04;23.21;60.32
75380;HTU21D;65641;44.714;37.756;2023-07-20T01:01:08;23.22;60.45
75380;HTU21D;65641;44.714;37.756;2023-07-20T01:02:12;23.20;60.48
75380;HTU21D;65641;44.714;37.756;2023-07-20T01:03:16;23.21;60.43
75380;HTU21D;65641;44.714;37.756;2023-07-20T01:04:20;23.20;60.54
75380;HTU21D;65641;44.714;37.756;2023-07-20T01:07:03;23.20;60.51
75380;HTU21D;65641;44.714;37.756;2023-07-20T01:08:17;23.21;60.38
75380;HTU21D;65641;44.714;37.756;2023-07-20T01:09:28;23.20;60.42
75380;HTU21D;65641;44.714;37.756;2023-07-20T01:10:59;23.20;60.43
75380;HTU21D;65641;44.714;37.756;2023-07-20T01:12:12;23.20;60.42
75380;HTU21D;65641;44.714;37.756;2023-07-20T01:13:17;23.21;60.28
75380;HTU21D;65641;44.714;37.756;2023-07-20T01:14:23;23.17;60.29
75380;HTU21D;65641;44.714;37.756;2023-07-20T01:15:28;23.17;60.39
75380;HTU21D;65641;44.714;37.756;2023-07-20T01:16:33;23.17;60.22
75380;HTU21D;65641;44.714;37.756;2023-07-20T01:17:37;23.16;60.31
75380;HTU21D;65641;44.714;37.756;2023-07-20T01:18:41;23.14;60.35
75380;HTU21D;65641;44.714;37.756;2023-07-20T01:19:44;23.14;60.32
75380;HTU21D;65641;44.714;37.756;2023-07-20T01:20:48;23.13;60.47
75380;HTU21D;65641;44.714;37.756;2023-07-20T01:23:25;23.12;60.47
75380;HTU21D;65641;44.714;37.756;2023-07-20T01:25:04;23.12;60.41
75380;HTU21D;65641;44.714;37.756;2023-07-20T01:26:22;23.10;60.42
75380;HTU21D;65641;44.714;37.756;2023-07-20T01:32:29;23.07;60.47
75380;HTU21D;65641;44.714;37.756;2023-07-20T01:33:34;23.06;60.51
75380;HTU21D;65641;44.714;37.756;2023-07-20T01:34:38;23.06;60.60
75380;HTU21D;65641;44.714;37.756;2023-07-20T01:35:43;23.05;60.54
75380;HTU21D;65641;44.714;37.756;2023-07-20T01:36:50;23.05;60.53
75380;HTU21D;65641;44.714;37.756;2023-07-20T01:37:56;23.02;60.62
75380;HTU21D;65641;44.714;37.756;2023-07-20T01:39:01;23.03;60.44
75380;HTU21D;65641;44.714;37.756;2023-07-20T01:40:06;23.02;60.54
75380;HTU21D;65641;44.714;37.756;2023-07-20T01:41:11;23.01;60.44
75380;HTU21D;65641;44.714;37.756;2023-07-20T01:42:14;23.01;60.56
75380;HTU21D;65641;44.714;37.756;2023-07-20T01:43:18;23.01;60.58
75380;HTU21D;65641;44.714;37.756;2023-07-20T01:44:22;23.01;60.54
75380;HTU21D;65641;44.714;37.756;2023-07-20T01:45:25;23.00;60.53
75380;HTU21D;65641;44.714;37.756;2023-07-20T01:46:29;23.01;60.50
75380;HTU21D;65641;44.714;37.756;2023-07-20T01:47:34;23.01;60.46
75380;HTU21D;65641;44.714;37.756;2023-07-20T01:48:37;23.00;60.56
75380;HTU21D;65641;44.714;37.756;2023-07-20T01:49:41;22.99;60.43
75380;HTU21D;65641;44.714;37.756;2023-07-20T01:50:45;22.99;60.59
75380;HTU21D;65641;44.714;37.756;2023-07-20T01:51:52;22.98;60.48
75380;HTU21D;65641;44.714;37.756;2023-07-20T01:52:55;22.98;60.47
75380;HTU21D;65641;44.714;37.756;2023-07-20T01:54:00;22.98;60.55
75380;HTU21D;65641;44.714;37.756;2023-07-20T01:55:04;22.99;60.44
75380;HTU21D;65641;44.714;37.756;2023-07-20T01:56:08;23.01;60.51
75380;HTU21D;65641;44.714;37.756;2023-07-20T01:57:12;23.00;60.60
75380;HTU21D;65641;44.714;37.756;2023-07-20T01:58:16;23.00;60.31
75380;HTU21D;65641;44.714;37.756;2023-07-20T01:59:19;23.00;60.45
75380;HTU21D;65641;44.714;37.756;2023-07-20T02:00:23;23.00;60.51
75380;HTU21D;65641;44.714;37.756;2023-07-20T02:01:28;23.00;60.42
75380;HTU21D;65641;44.714;37.756;2023-07-20T02:02:32;22.99;60.48
75380;HTU21D;65641;44.714;37.756;2023-07-20T02:03:35;23.00;60.31
75380;HTU21D;65641;44.714;37.756;2023-07-20T02:04:39;23.01;60.24
75380;HTU21D;65641;44.714;37.756;2023-07-20T02:05:43;23.01;60.41
75380;HTU21D;65641;44.714;37.756;2023-07-20T02:06:47;23.01;60.31
75380;HTU21D;65641;44.714;37.756;2023-07-20T02:07:50;23.02;60.35
75380;HTU21D;65641;44.714;37.756;2023-07-20T02:08:55;23.02;60.28
75380;HTU21D;65641;44.714;37.756;2023-07-20T02:09:59;23.03;60.20
75380;HTU21D;65641;44.714;37.756;2023-07-20T02:11:03;23.03;60.16
75380;HTU21D;65641;44.714;37.756;2023-07-20T02:12:08;23.05;60.28
75380;HTU21D;65641;44.714;37.756;2023-07-20T02:13:13;23.05;60.02
75380;HTU21D;65641;44.714;37.756;2023-07-20T02:14:16;23.05;60.00
75380;HTU21D;65641;44.714;37.756;2023-07-20T02:15:20;23.06;60.08
75380;HTU21D;65641;44.714;37.756;2023-07-20T02:16:26;23.05;60.19
75380;HTU21D;65641;44.714;37.756;2023-07-20T02:17:30;23.07;60.01
75380;HTU21D;65641;44.714;37.756;2023-07-20T02:18:35;23.07;60.02
75380;HTU21D;65641;44.714;37.756;2023-07-20T02:19:40;23.08;60.00
75380;HTU21D;65641;44.714;37.756;2023-07-20T02:20:44;23.09;59.95
75380;HTU21D;65641;44.714;37.756;2023-07-20T02:21:48;23.09;60.02
75380;HTU21D;65641;44.714;37.756;2023-07-20T02:22:51;23.11;59.83
75380;HTU21D;65641;44.714;37.756;2023-07-20T02:23:55;23.12;59.91
75380;HTU21D;65641;44.714;37.756;2023-07-20T02:24:59;23.12;59.81
75380;HTU21D;65641;44.714;37.756;2023-07-20T02:26:03;23.13;59.91
75380;HTU21D;65641;44.714;37.756;2023-07-20T02:27:06;23.14;59.82
75380;HTU21D;65641;44.714;37.756;2023-07-20T02:28:13;23.14;59.70
75380;HTU21D;65641;44.714;37.756;2023-07-20T02:29:17;23.16;59.74
75380;HTU21D;65641;44.714;37.756;2023-07-20T02:30:21;23.17;59.66
75380;HTU21D;65641;44.714;37.756;2023-07-20T02:31:25;23.17;59.61
75380;HTU21D;65641;44.714;37.756;2023-07-20T02:32:30;23.18;59.59
75380;HTU21D;65641;44.714;37.756;2023-07-20T02:33:34;23.18;59.64
75380;HTU21D;65641;44.714;37.756;2023-07-20T02:34:38;23.21;59.57
75380;HTU21D;65641;44.714;37.756;2023-07-20T02:35:41;23.22;59.60
75380;HTU21D;65641;44.714;37.756;2023-07-20T02:36:45;23.22;59.47
75380;HTU21D;65641;44.714;37.756;2023-07-20T02:37:49;23.23;59.45
75380;HTU21D;65641;44.714;37.756;2023-07-20T02:38:53;23.24;59.36
75380;HTU21D;65641;44.714;37.756;2023-07-20T02:39:56;23.24;59.42
75380;HTU21D;65641;44.714;37.756;2023-07-20T02:41:01;23.26;59.40
75380;HTU21D;65641;44.714;37.756;2023-07-20T02:42:04;23.27;59.30
75380;HTU21D;65641;44.714;37.756;2023-07-20T02:43:08;23.27;59.28
75380;HTU21D;65641;44.714;37.756;2023-07-20T02:44:13;23.29;59.26
75380;HTU21D;65641;44.714;37.756;2023-07-20T02:45:17;23.29;59.24
75380;HTU21D;65641;44.714;37.756;2023-07-20T02:46:20;23.30;59.23
75380;HTU21D;65641;44.714;37.756;2023-07-20T02:47:25;23.31;59.10
75380;HTU21D;65641;44.714;37.756;2023-07-20T02:48:28;23.32;59.03
75380;HTU21D;65641;44.714;37.756;2023-07-20T02:49:32;23.32;59.07
75380;HTU21D;65641;44.714;37.756;2023-07-20T02:50:36;23.34;59.03
75380;HTU21D;65641;44.714;37.756;2023-07-20T02:51:40;23.35;58.98
75380;HTU21D;65641;44.714;37.756;2023-07-20T02:52:43;23.38;58.89
75380;HTU21D;65641;44.714;37.756;2023-07-20T02:53:47;23.38;58.92
75380;HTU21D;65641;44.714;37.756;2023-07-20T02:54:51;23.38;58.88
75380;HTU21D;65641;44.714;37.756;2023-07-20T02:55:54;23.41;58.81
75380;HTU21D;65641;44.714;37.756;2023-07-20T02:56:58;23.41;58.80
75380;HTU21D;65641;44.714;37.756;2023-07-20T02:58:02;23.42;58.79
75380;HTU21D;65641;44.714;37.756;2023-07-20T02:59:05;23.43;58.70
75380;HTU21D;65641;44.714;37.756;2023-07-20T03:00:10;23.44;58.71
75380;HTU21D;65641;44.714;37.756;2023-07-20T03:01:14;23.46;58.65
75380;HTU21D;65641;44.714;37.756;2023-07-20T03:02:18;23.46;58.58
75380;HTU21D;65641;44.714;37.756;2023-07-20T03:03:22;23.47;58.63
75380;HTU21D;65641;44.714;37.756;2023-07-20T03:04:26;23.49;58.56
75380;HTU21D;65641;44.714;37.756;2023-07-20T03:05:30;23.47;58.53
75380;HTU21D;65641;44.714;37.756;2023-07-20T03:06:34;23.52;58.51
75380;HTU21D;65641;44.714;37.756;2023-07-20T03:07:39;23.54;58.42
75380;HTU21D;65641;44.714;37.756;2023-07-20T03:08:43;23.55;58.41
75380;HTU21D;65641;44.714;37.756;2023-07-20T03:09:51;23.56;58.32
75380;HTU21D;65641;44.714;37.756;2023-07-20T03:10:54;23.57;58.28
75380;HTU21D;65641;44.714;37.756;2023-07-20T03:11:59;23.59;58.26
75380;HTU21D;65641;44.714;37.756;2023-07-20T03:13:03;23.61;58.24
75380;HTU21D;65641;44.714;37.756;2023-07-20T03:14:07;23.59;58.17
75380;HTU21D;65641;44.714;37.756;2023-07-20T03:15:10;23.62;58.17
75380;HTU21D;65641;44.714;37.756;2023-07-20T03:16:18;23.64;58.13
75380;HTU21D;65641;44.714;37.756;2023-07-20T03:17:22;23.67;58.09
75380;HTU21D;65641;44.714;37.756;2023-07-20T03:18:26;23.67;58.02
75380;HTU21D;65641;44.714;37.756;2023-07-20T03:19:30;23.69;57.97
75380;HTU21D;65641;44.714;37.756;2023-07-20T03:20:35;23.71;57.95
75380;HTU21D;65641;44.714;37.756;2023-07-20T03:21:40;23.73;57.82
75380;HTU21D;65641;44.714;37.756;2023-07-20T03:22:44;23.73;57.89
75380;HTU21D;65641;44.714;37.756;2023-07-20T03:23:50;23.76;57.81
75380;HTU21D;65641;44.714;37.756;2023-07-20T03:24:53;23.76;57.77
75380;HTU21D;65641;44.714;37.756;2023-07-20T03:25:57;23.79;57.71
75380;HTU21D;65641;44.714;37.756;2023-07-20T03:27:00;23.82;57.64
75380;HTU21D;65641;44.714;37.756;2023-07-20T03:28:04;23.83;57.64
75380;HTU21D;65641;44.714;37.756;2023-07-20T03:29:08;23.83;57.58
75380;HTU21D;65641;44.714;37.756;2023-07-20T03:30:12;23.84;57.54
75380;HTU21D;65641;44.714;37.756;2023-07-20T03:31:15;23.87;57.49
75380;HTU21D;65641;44.714;37.756;2023-07-20T03:32:19;23.90;57.46
75380;HTU21D;65641;44.714;37.756;2023-07-20T03:33:25;23.90;57.35
75380;HTU21D;65641;44.714;37.756;2023-07-20T03:34:30;23.92;57.32
75380;HTU21D;65641;44.714;37.756;2023-07-20T03:35:33;23.92;57.31
75380;HTU21D;65641;44.714;37.756;2023-07-20T03:36:37;23.96;57.29
75380;HTU21D;65641;44.714;37.756;2023-07-20T03:37:40;23.98;57.28
75380;HTU21D;65641;44.714;37.756;2023-07-20T03:38:45;23.99;57.19
75380;HTU21D;65641;44.714;37.756;2023-07-20T03:39:49;24.01;57.15
75380;HTU21D;65641;44.714;37.756;2023-07-20T03:40:57;24.02;57.12
75380;HTU21D;65641;44.714;37.756;2023-07-20T03:42:01;24.04;57.00
75380;HTU21D;65641;44.714;37.756;2023-07-20T03:43:04;24.06;57.02
75380;HTU21D;65641;44.714;37.756;2023-07-20T03:44:08;24.09;56.96
75380;HTU21D;65641;44.714;37.756;2023-07-20T03:45:12;24.11;56.87
75380;HTU21D;65641;44.714;37.756;2023-07-20T03:46:16;24.12;56.85
75380;HTU21D;65641;44.714;37.756;2023-07-20T03:47:20;24.15;56.77
75380;HTU21D;65641;44.714;37.756;2023-07-20T03:48:24;24.17;56.71
75380;HTU21D;65641;44.714;37.756;2023-07-20T03:49:28;24.17;56.71
75380;HTU21D;65641;44.714;37.756;2023-07-20T03:50:32;24.19;56.62
75380;HTU21D;65641;44.714;37.756;2023-07-20T03:51:36;24.21;56.57
75380;HTU21D;65641;44.714;37.756;2023-07-20T03:52:40;24.24;56.52
75380;HTU21D;65641;44.714;37.756;2023-07-20T03:53:43;24.24;56.50
75380;HTU21D;65641;44.714;37.756;2023-07-20T03:54:47;24.25;56.52
75380;HTU21D;65641;44.714;37.756;2023-07-20T03:55:51;24.26;56.52
75380;HTU21D;65641;44.714;37.756;2023-07-20T03:56:55;24.27;56.44
75380;HTU21D;65641;44.714;37.756;2023-07-20T03:57:59;24.30;56.36
75380;HTU21D;65641;44.714;37.756;2023-07-20T03:59:03;24.31;56.34
75380;HTU21D;65641;44.714;37.756;2023-07-20T04:00:07;24.33;56.30
75380;HTU21D;65641;44.714;37.756;2023-07-20T04:01:17;24.36;56.22
75380;HTU21D;65641;44.714;37.756;2023-07-20T04:02:20;24.38;56.16
75380;HTU21D;65641;44.714;37.756;2023-07-20T04:03:24;24.40;56.18
75380;HTU21D;65641;44.714;37.756;2023-07-20T04:04:29;24.42;56.13
75380;HTU21D;65641;44.714;37.756;2023-07-20T04:05:33;24.43;56.09
75380;HTU21D;65641;44.714;37.756;2023-07-20T04:06:37;24.45;56.10
75380;HTU21D;65641;44.714;37.756;2023-07-20T04:07:41;24.47;56.00
75380;HTU21D;65641;44.714;37.756;2023-07-20T04:08:45;24.48;55.98
75380;HTU21D;65641;44.714;37.756;2023-07-20T04:09:50;24.48;55.94
75380;HTU21D;65641;44.714;37.756;2023-07-20T04:10:54;24.51;55.87
75380;HTU21D;65641;44.714;37.756;2023-07-20T04:11:58;24.51;55.88
75380;HTU21D;65641;44.714;37.756;2023-07-20T04:13:01;24.54;55.84
75380;HTU21D;65641;44.714;37.756;2023-07-20T04:14:05;24.56;55.76
75380;HTU21D;65641;44.714;37.756;2023-07-20T04:15:09;24.57;55.79
75380;HTU21D;65641;44.714;37.756;2023-07-20T04:16:13;24.58;55.74
75380;HTU21D;65641;44.714;37.756;2023-07-20T04:17:18;24.61;55.66
75380;HTU21D;65641;44.714;37.756;2023-07-20T04:18:21;24.62;55.66
75380;HTU21D;65641;44.714;37.756;2023-07-20T04:19:25;24.63;55.62
75380;HTU21D;65641;44.714;37.756;2023-07-20T04:20:28;24.64;55.61
75380;HTU21D;65641;44.714;37.756;2023-07-20T04:21:32;24.66;55.61
75380;HTU21D;65641;44.714;37.756;2023-07-20T04:22:36;24.66;55.59
75380;HTU21D;65641;44.714;37.756;2023-07-20T04:23:42;24.69;55.51
75380;HTU21D;65641;44.714;37.756;2023-07-20T04:24:46;24.71;55.49
75380;HTU21D;65641;44.714;37.756;2023-07-20T04:25:49;24.72;55.48
75380;HTU21D;65641;44.714;37.756;2023-07-20T04:26:53;24.75;55.42
75380;HTU21D;65641;44.714;37.756;2023-07-20T04:27:57;24.77;55.35
75380;HTU21D;65641;44.714;37.756;2023-07-20T04:29:01;24.78;55.36
75380;HTU21D;65641;44.714;37.756;2023-07-20T04:30:10;24.79;55.39
75380;HTU21D;65641;44.714;37.756;2023-07-20T04:31:15;24.83;55.36
75380;HTU21D;65641;44.714;37.756;2023-07-20T04:32:20;24.84;55.34
75380;HTU21D;65641;44.714;37.756;2023-07-20T04:33:23;24.84;55.32
75380;HTU21D;65641;44.714;37.756;2023-07-20T04:34:27;24.87;55.30
75380;HTU21D;65641;44.714;37.756;2023-07-20T04:35:53;24.89;55.26
75380;HTU21D;65641;44.714;37.756;2023-07-20T04:37:06;24.91;55.20
75380;HTU21D;65641;44.714;37.756;2023-07-20T04:38:10;24.92;55.20
75380;HTU21D;65641;44.714;37.756;2023-07-20T04:39:14;24.95;55.13
75380;HTU21D;65641;44.714;37.756;2023-07-20T04:40:34;24.98;55.09
75380;HTU21D;65641;44.714;37.756;2023-07-20T04:41:38;25.00;55.07
75380;HTU21D;65641;44.714;37.756;2023-07-20T04:42:41;25.01;55.00
75380;HTU21D;65641;44.714;37.756;2023-07-20T04:43:45;25.04;54.97
75380;HTU21D;65641;44.714;37.756;2023-07-20T04:44:51;25.04;54.95
75380;HTU21D;65641;44.714;37.756;2023-07-20T04:45:55;25.07;54.87
75380;HTU21D;65641;44.714;37.756;2023-07-20T04:46:59;25.09;54.87
75380;HTU21D;65641;44.714;37.756;2023-07-20T04:48:11;25.10;54.82
75380;HTU21D;65641;44.714;37.756;2023-07-20T04:49:19;25.14;54.75
75380;HTU21D;65641;44.714;37.756;2023-07-20T04:50:23;25.16;54.74
75380;HTU21D;65641;44.714;37.756;2023-07-20T04:51:28;25.18;54.68
75380;HTU21D;65641;44.714;37.756;2023-07-20T04:52:34;25.18;54.65
75380;HTU21D;65641;44.714;37.756;2023-07-20T04:53:49;25.21;54.60
75380;HTU21D;65641;44.714;37.756;2023-07-20T04:54:53;25.22;54.57
75380;HTU21D;65641;44.714;37.756;2023-07-20T04:55:57;25.25;54.56
75380;HTU21D;65641;44.714;37.756;2023-07-20T04:57:01;25.28;54.53
75380;HTU21D;65641;44.714;37.756;2023-07-20T04:58:06;25.29;54.46
75380;HTU21D;65641;44.714;37.756;2023-07-20T04:59:11;25.31;54.42
75380;HTU21D;65641;44.714;37.756;2023-07-20T05:00:15;25.32;54.39
75380;HTU21D;65641;44.714;37.756;2023-07-20T05:01:20;25.34;54.37
75380;HTU21D;65641;44.714;37.756;2023-07-20T05:02:24;25.35;54.33
75380;HTU21D;65641;44.714;37.756;2023-07-20T05:03:28;25.39;54.25
75380;HTU21D;65641;44.714;37.756;2023-07-20T05:04:32;25.43;54.22
75380;HTU21D;65641;44.714;37.756;2023-07-20T05:05:42;25.45;54.13
75380;HTU21D;65641;44.714;37.756;2023-07-20T05:06:47;25.48;54.07
75380;HTU21D;65641;44.714;37.756;2023-07-20T05:07:51;25.50;54.04
75380;HTU21D;65641;44.714;37.756;2023-07-20T05:08:55;25.52;53.94
75380;HTU21D;65641;44.714;37.756;2023-07-20T05:09:58;25.56;53.87
75380;HTU21D;65641;44.714;37.756;2023-07-20T05:11:02;25.57;53.83
75380;HTU21D;65641;44.714;37.756;2023-07-20T05:12:06;25.59;53.83
75380;HTU21D;65641;44.714;37.756;2023-07-20T05:13:11;25.59;53.78
75380;HTU21D;65641;44.714;37.756;2023-07-20T05:14:14;25.62;53.72
75380;HTU21D;65641;44.714;37.756;2023-07-20T05:15:18;25.65;53.66
75380;HTU21D;65641;44.714;37.756;2023-07-20T05:16:21;25.66;53.62
75380;HTU21D;65641;44.714;37.756;2023-07-20T05:17:26;25.68;53.55
75380;HTU21D;65641;44.714;37.756;2023-07-20T05:18:29;25.72;53.47
75380;HTU21D;65641;44.714;37.756;2023-07-20T05:19:34;25.75;53.42
75380;HTU21D;65641;44.714;37.756;2023-07-20T05:20:38;25.79;53.36
75380;HTU21D;65641;44.714;37.756;2023-07-20T05:21:42;25.79;53.28
75380;HTU21D;65641;44.714;37.756;2023-07-20T05:22:46;25.81;53.23
75380;HTU21D;65641;44.714;37.756;2023-07-20T05:23:49;25.83;53.20
75380;HTU21D;65641;44.714;37.756;2023-07-20T05:24:53;25.86;53.15
75380;HTU21D;65641;44.714;37.756;2023-07-20T05:25:58;25.88;53.08
75380;HTU21D;65641;44.714;37.756;2023-07-20T05:27:02;25.91;53.04
75380;HTU21D;65641;44.714;37.756;2023-07-20T05:28:06;25.92;52.98
75380;HTU21D;65641;44.714;37.756;2023-07-20T05:29:10;25.95;52.89
75380;HTU21D;65641;44.714;37.756;2023-07-20T05:30:13;25.97;52.85
75380;HTU21D;65641;44.714;37.756;2023-07-20T05:31:17;25.98;52.80
75380;HTU21D;65641;44.714;37.756;2023-07-20T05:32:21;26.01;52.76
75380;HTU21D;65641;44.714;37.756;2023-07-20T05:33:24;26.02;52.73
75380;HTU21D;65641;44.714;37.756;2023-07-20T05:34:28;26.04;52.70
75380;HTU21D;65641;44.714;37.756;2023-07-20T05:35:32;26.05;52.67
75380;HTU21D;65641;44.714;37.756;2023-07-20T05:36:35;26.08;52.63
75380;HTU21D;65641;44.714;37.756;2023-07-20T05:37:53;26.10;52.59
75380;HTU21D;65641;44.714;37.756;2023-07-20T05:38:57;26.11;52.57
75380;HTU21D;65641;44.714;37.756;2023-07-20T05:40:01;26.11;52.56
75380;HTU21D;65641;44.714;37.756;2023-07-20T05:41:05;26.13;52.55
75380;HTU21D;65641;44.714;37.756;2023-07-20T05:42:13;26.13;52.52
75380;HTU21D;65641;44.714;37.756;2023-07-20T05:43:17;26.16;52.46
75380;HTU21D;65641;44.714;37.756;2023-07-20T05:44:21;26.17;52.48
75380;HTU21D;65641;44.714;37.756;2023-07-20T05:45:24;26.19;52.42
75380;HTU21D;65641;44.714;37.756;2023-07-20T05:46:27;26.21;52.34
75380;HTU21D;65641;44.714;37.756;2023-07-20T05:47:44;26.23;52.35
75380;HTU21D;65641;44.714;37.756;2023-07-20T05:48:48;26.23;52.30
75380;HTU21D;65641;44.714;37.756;2023-07-20T05:49:52;26.24;52.30
75380;HTU21D;65641;44.714;37.756;2023-07-20T05:50:55;26.26;52.28
75380;HTU21D;65641;44.714;37.756;2023-07-20T05:51:59;26.25;52.29
75380;HTU21D;65641;44.714;37.756;2023-07-20T05:53:04;26.28;52.26
75380;HTU21D;65641;44.714;37.756;2023-07-20T05:54:07;26.28;52.27
75380;HTU21D;65641;44.714;37.756;2023-07-20T05:55:11;26.33;52.19
75380;HTU21D;65641;44.714;37.756;2023-07-20T05:56:15;26.34;52.14
75380;HTU21D;65641;44.714;37.756;2023-07-20T05:57:18;26.34;52.10
75380;HTU21D;65641;44.714;37.756;2023-07-20T05:58:22;26.38;52.05
75380;HTU21D;65641;44.714;37.756;2023-07-20T05:59:27;26.40;51.96
75380;HTU21D;65641;44.714;37.756;2023-07-20T06:00:32;26.45;51.95
75380;HTU21D;65641;44.714;37.756;2023-07-20T06:01:36;26.46;51.90
75380;HTU21D;65641;44.714;37.756;2023-07-20T06:02:40;26.50;51.76
75380;HTU21D;65641;44.714;37.756;2023-07-20T06:03:44;26.54;51.72
75380;HTU21D;65641;44.714;37.756;2023-07-20T06:04:48;26.57;51.58
75380;HTU21D;65641;44.714;37.756;2023-07-20T06:05:59;26.60;51.51
75380;HTU21D;65641;44.714;37.756;2023-07-20T06:07:04;26.62;51.49
75380;HTU21D;65641;44.714;37.756;2023-07-20T06:08:08;26.64;51.43
75380;HTU21D;65641;44.714;37.756;2023-07-20T06:09:11;26.66;51.40
75380;HTU21D;65641;44.714;37.756;2023-07-20T06:10:15;26.68;51.34
75380;HTU21D;65641;44.714;37.756;2023-07-20T06:11:20;26.69;51.38
75380;HTU21D;65641;44.714;37.756;2023-07-20T06:12:24;26.71;51.28
75380;HTU21D;65641;44.714;37.756;2023-07-20T06:13:28;26.76;51.21
75380;HTU21D;65641;44.714;37.756;2023-07-20T06:14:32;26.79;51.09
75380;HTU21D;65641;44.714;37.756;2023-07-20T06:15:36;26.83;51.02
75380;HTU21D;65641;44.714;37.756;2023-07-20T06:16:40;26.86;50.85
75380;HTU21D;65641;44.714;37.756;2023-07-20T06:17:47;26.90;50.87
75380;HTU21D;65641;44.714;37.756;2023-07-20T06:18:54;26.93;50.78
75380;HTU21D;65641;44.714;37.756;2023-07-20T06:19:57;26.95;50.73
75380;HTU21D;65641;44.714;37.756;2023-07-20T06:21:01;26.97;50.66
75380;HTU21D;65641;44.714;37.756;2023-07-20T06:22:05;27.00;50.54
75380;HTU21D;65641;44.714;37.756;2023-07-20T06:23:08;27.04;50.53
75380;HTU21D;65641;44.714;37.756;2023-07-20T06:24:12;27.05;50.42
75380;HTU21D;65641;44.714;37.756;2023-07-20T06:25:16;27.09;50.43
75380;HTU21D;65641;44.714;37.756;2023-07-20T06:26:20;27.10;50.43
75380;HTU21D;65641;44.714;37.756;2023-07-20T06:27:25;27.12;50.33
75380;HTU21D;65641;44.714;37.756;2023-07-20T06:28:28;27.15;50.27
75380;HTU21D;65641;44.714;37.756;2023-07-20T06:29:32;27.17;50.25
75380;HTU21D;65641;44.714;37.756;2023-07-20T06:30:35;27.21;50.20
75380;HTU21D;65641;44.714;37.756;2023-07-20T06:31:40;27.21;50.09
75380;HTU21D;65641;44.714;37.756;2023-07-20T06:32:44;27.23;50.05
75380;HTU21D;65641;44.714;37.756;2023-07-20T06:33:48;27.25;50.09
75380;HTU21D;65641;44.714;37.756;2023-07-20T06:34:52;27.27;50.01
75380;HTU21D;65641;44.714;37.756;2023-07-20T06:35:55;27.29;49.89
75380;HTU21D;65641;44.714;37.756;2023-07-20T06:37:00;27.31;50.02
75380;HTU21D;65641;44.714;37.756;2023-07-20T06:38:04;27.31;49.75
75380;HTU21D;65641;44.714;37.756;2023-07-20T06:39:11;27.35;49.61
75380;HTU21D;65641;44.714;37.756;2023-07-20T06:40:17;27.36;49.69
75380;HTU21D;65641;44.714;37.756;2023-07-20T06:41:24;27.39;49.88
75380;HTU21D;65641;44.714;37.756;2023-07-20T06:42:31;27.41;49.70
75380;HTU21D;65641;44.714;37.756;2023-07-20T06:43:37;27.44;49.42
75380;HTU21D;65641;44.714;37.756;2023-07-20T06:44:44;27.46;49.50
75380;HTU21D;65641;44.714;37.756;2023-07-20T06:45:52;27.49;49.53